Kilsyth, United Kingdom
Current Conditions -  °F | °C
As of 10:20 PM on Thursday 23 Oct 2014 (Local Time) from EGPF Reporting Station
Few Clouds Few Clouds  
Wind Chill: 11°   Ceiling: Unl
Heat Index: 11°   Visibility: 6mi
Dew Point:   Wind: 14mph
Humidity: 88%   Direction: 240°WSW
Pressure: 29.74"   Gusts: NA
Location:  55.98°N, 4.06°W
Report Text: EGPF 232120Z AUTO 24012KT 9999 FEW049 11/09 Q1007
Loading
Personal Weather Stations






























Interactive Weather Map
Tropical Storm Tracking
New forecast layout! Learn more

10-Day Weather Forecast

Advertisements
Track Severe Weather on mobile